Flight Track Log - Related Links

Times and Time Zones

All times are in EDT time to prevent confusion due to time zone crossing. See the DAL1981 flight status page for this flight to view local times or setup timezone preferences in your user account.

Time Position Orientation Groundspeed Altitude Reporting Facility
EDT Latitude Longitude Course Direction KTS MPH feet Rate Location/Type
Wed 03:57:18 PM 38.7333 -121.6000 78° East 162 186 1,800  Level Northern Cal TRACON
Wed 03:58:18 PM 38.7500 -121.5333 72° East 233 268 3,000 1,835 Climbing Northern Cal TRACON
Wed 03:59:00 PM 38.4980 -121.2471 80° East  Level FlightAware Approximate
Wed 03:59:19 PM 38.7500 -121.4333 90° East 273 314 5,500  Level Northern Cal TRACON
Wed 04:00:00 PM 38.5360 -121.0870 76° East  Level FlightAware Approximate
Wed 04:00:18 PM 38.7500 -121.3333 90° East 279 321 8,800  Level Northern Cal TRACON
Wed 04:01:00 PM 38.5656 -120.9234 78° East  Level FlightAware Approximate
Wed 04:01:13 PM 38.7500 -121.2500 90° East 310 357 10,100  Level Northern Cal TRACON
Wed 04:02:00 PM 38.5930 -120.7592 78° East  Level FlightAware Approximate
Wed 04:02:28 PM 38.7386 -121.0964 95° East 348 400 11,500  Level Oakland Center
Wed 04:03:29 PM 38.7364 -120.9525 91° East 394 453 13,500 1,902 Climbing Oakland Center
Wed 04:04:31 PM 38.7811 -120.8247 66° East 406 467 15,400 1,805 Climbing Oakland Center
Wed 04:05:32 PM 38.8525 -120.7075 52° Northeast 415 478 17,200 1,659 Climbing Oakland Center
Wed 04:06:34 PM 38.9275 -120.5861 52° Northeast 430 495 18,800 1,512 Climbing Oakland Center
Wed 04:07:35 PM 39.0047 -120.4603 52° Northeast 446 513 20,300 1,463 Climbing Oakland Center
Wed 04:08:37 PM 39.0833 -120.3314 52° Northeast 456 525 21,800 1,463 Climbing Oakland Center
Wed 04:09:38 PM 39.1797 -120.1717 52° Northeast 470 541 23,300 1,268 Climbing Oakland Center
Wed 04:10:40 PM 39.2517 -120.0572 51° Northeast 482 555 24,400 1,268 Climbing Oakland Center
Wed 04:11:41 PM 39.3528 -119.8911 52° Northeast 488 562 25,900 1,073 Climbing Oakland Center
Wed 04:12:43 PM 39.4364 -119.7506 52° Northeast 491 565 26,600 780 Climbing Oakland Center
Wed 04:13:44 PM 39.5211 -119.6069 53° Northeast 498 573 27,500 829 Climbing Oakland Center
Wed 04:14:46 PM 39.6072 -119.4617 52° Northeast 503 579 28,300 878 Climbing Oakland Center
Wed 04:15:47 PM 39.6944 -119.3153 52° Northeast 508 585 29,300 885 Climbing Oakland Center
Wed 04:16:48 PM 39.7808 -119.1686 53° Northeast 507 583 30,100 780 Climbing Oakland Center
Wed 04:17:50 PM 39.8675 -119.0197 53° Northeast 510 587 30,900 829 Climbing Oakland Center
Wed 04:18:51 PM 39.9331 -118.8511 63° Northeast 523 602 31,800 927 Climbing Oakland Center
Wed 04:19:53 PM 39.9886 -118.6758 67° East 519 597 32,800 927 Climbing Oakland Center
Wed 04:20:54 PM 40.0428 -118.5019 68° East 516 594 33,700 787 Climbing Oakland Center
Wed 04:21:55 PM 40.0956 -118.3300 68° East 510 587 34,400 634 Climbing Oakland Center
Wed 04:22:57 PM 40.1483 -118.1578 68° East 510 587 35,000 324 Climbing Oakland Center
Wed 04:23:46 PM 40.1981 -117.9908 69° East 513 590 35,000  Level Salt Lake Center
Wed 04:24:48 PM 40.2503 -117.8208 68° East 521 600 35,000  Level Salt Lake Center
Wed 04:25:49 PM 40.3108 -117.6203 68° East 529 609 35,000  Level Salt Lake Center
Wed 04:26:51 PM 40.3631 -117.4469 68° East 532 612 35,000  Level Salt Lake Center
Wed 04:27:53 PM 40.4150 -117.2731 69° East 533 613 35,000  Level Salt Lake Center
Wed 04:28:55 PM 40.4761 -117.0711 68° East 528 608 35,000  Level Salt Lake Center
Wed 04:29:56 PM 40.5281 -116.8917 69° East 533 613 35,000  Level Salt Lake Center
Wed 04:30:58 PM 40.5792 -116.7164 69° East 527 606 35,000 48 Level Salt Lake Center
Wed 04:32:00 PM 40.6372 -116.5122 69° East 530 610 35,100  Climbing Salt Lake Center
Wed 04:33:02 PM 40.6872 -116.3386 69° East 529 609 35,000 -48 Descending Salt Lake Center
Wed 04:34:04 PM 40.7458 -116.1361 69° East 529 609 35,000  Level Salt Lake Center
Wed 04:35:06 PM 40.7958 -115.9614 69° East 531 611 35,000  Level Salt Lake Center
Wed 04:36:07 PM 40.8447 -115.7836 70° East 531 611 35,000  Level Salt Lake Center
Wed 04:37:09 PM 40.9019 -115.5789 70° East 534 615 35,000 48 Level Salt Lake Center
Wed 04:38:11 PM 40.9514 -115.4014 70° East 537 618 35,100  Climbing Salt Lake Center
Wed 04:39:13 PM 41.0075 -115.1936 70° East 536 617 35,000 -48 Descending Salt Lake Center
Wed 04:40:15 PM 41.0553 -115.0186 70° East 532 612 35,000  Level Salt Lake Center
Wed 04:41:16 PM 41.1089 -114.8181 70° East 519 597 35,000  Level Salt Lake Center
Wed 04:42:18 PM 41.1539 -114.6522 70° East 515 593 35,000  Level Salt Lake Center
Wed 04:43:20 PM 41.2006 -114.4719 71° East 517 595 35,000 -48 Level Salt Lake Center
Wed 04:44:22 PM 41.2478 -114.2925 71° East 516 594 34,900 -48 Descending Salt Lake Center
Wed 04:45:24 PM 41.3047 -114.0767 71° East 516 594 34,900 98 Level Salt Lake Center
Wed 04:46:25 PM 41.3531 -113.8944 70° East 522 601 35,100 98 Climbing Salt Lake Center
Wed 04:47:27 PM 41.4011 -113.7122 71° East 523 602 35,100 -48 Level Salt Lake Center
Wed 04:48:29 PM 41.4458 -113.5300 72° East 519 597 35,000 -97 Descending Salt Lake Center
Wed 04:49:31 PM 41.4939 -113.3478 71° East 521 600 34,900  Descending Salt Lake Center
Wed 04:50:32 PM 41.5397 -113.1633 72° East 524 603 35,000 98 Climbing Salt Lake Center
Wed 04:51:34 PM 41.5858 -112.9794 71° East 523 602 35,100  Climbing Salt Lake Center
Wed 04:52:36 PM 41.6422 -112.7608 71° East 520 598 35,000 -96 Descending Salt Lake Center
Wed 04:53:39 PM 41.6856 -112.5800 72° East 513 590 34,900  Descending Salt Lake Center
Wed 04:54:39 PM 41.7303 -112.3964 72° East 516 594 35,000 49 Climbing Salt Lake Center
Wed 04:55:41 PM 41.7747 -112.2114 72° East 519 597 35,000  Level Salt Lake Center
Wed 04:56:43 PM 41.8189 -112.0256 72° East 522 601 35,000  Level Salt Lake Center
Wed 04:57:45 PM 41.8631 -111.8433 72° East 515 593 35,000  Level Salt Lake Center
Wed 04:58:46 PM 41.9064 -111.6597 72° East 514 592 35,000  Level Salt Lake Center
Wed 04:59:48 PM 41.9503 -111.4772 72° East 515 593 35,000  Level Salt Lake Center
Wed 05:00:50 PM 41.9919 -111.2972 73° East 505 581 35,000 -48 Level Salt Lake Center
Wed 05:01:52 PM 42.0411 -111.0858 73° East 495 570 34,900 -726 Descending Salt Lake Center
Wed 05:02:54 PM 42.0825 -110.9069 73° East 483 556 33,500 -927 Descending Salt Lake Center
Wed 05:03:55 PM 42.1206 -110.7367 73° East 492 566 33,000 -244 Descending Salt Lake Center
Wed 05:04:57 PM 42.1606 -110.5619 73° East 505 581 33,000  Level Salt Lake Center
Wed 05:05:59 PM 42.2061 -110.3603 73° East 504 580 33,000  Level Salt Lake Center
Wed 05:07:00 PM 42.2431 -110.1872 74° East 501 577 33,000  Level Salt Lake Center
Wed 05:08:02 PM 42.2883 -109.9858 73° East 502 578 33,000  Level Salt Lake Center
Wed 05:09:04 PM 42.3253 -109.8128 74° East 500 575 33,000  Level Salt Lake Center
Wed 05:10:06 PM 42.3700 -109.6103 73° East 502 578 33,000  Level Salt Lake Center
Wed 05:11:08 PM 42.4078 -109.4361 74° East 502 578 33,000  Level Salt Lake Center
Wed 05:12:09 PM 42.4447 -109.2611 74° East 504 580 33,000  Level Salt Lake Center
Wed 05:13:11 PM 42.4875 -109.0575 74° East 503 579 33,000  Level Salt Lake Center
Wed 05:14:13 PM 42.5242 -108.8836 74° East 500 575 33,000  Level Salt Lake Center
Wed 05:15:15 PM 42.5667 -108.6797 74° East 502 578 33,000 48 Level Salt Lake Center
Wed 05:16:17 PM 42.6022 -108.5058 74° East 500 575 33,100  Climbing Salt Lake Center
Wed 05:17:18 PM 42.6425 -108.3039 75° East 497 572 33,000 -49 Descending Salt Lake Center
Wed 05:18:20 PM 42.6772 -108.1325 75° East 493 567 33,000  Level Salt Lake Center
Wed 05:19:22 PM 42.7122 -107.9606 74° East 493 567 33,000  Level Salt Lake Center
Wed 05:20:24 PM 42.7522 -107.7578 75° East 496 571 33,000  Level Salt Lake Center
Wed 05:21:26 PM 42.7858 -107.5853 75° East 493 567 33,000  Level Salt Lake Center
Wed 05:22:28 PM 42.8250 -107.3825 75° East 496 571 33,000  Level Salt Lake Center
Wed 05:23:29 PM 42.8586 -107.2100 75° East 494 568 33,000  Level Salt Lake Center
Wed 05:24:31 PM 42.8961 -107.0083 76° East 491 565 33,000  Level Salt Lake Center
Wed 05:25:33 PM 42.9278 -106.8436 75° East 491 565 33,000  Level Salt Lake Center
Wed 05:26:15 PM 42.9531 -106.6975 77° East 491 565 33,000  Level Denver Center
Wed 05:27:17 PM 42.9847 -106.5239 76° East 492 566 33,000  Level Denver Center
Wed 05:28:19 PM 43.0231 -106.3214 75° East 492 566 33,000  Level Denver Center
Wed 05:29:22 PM 43.0531 -106.1467 77° East 493 567 33,000  Level Denver Center
Wed 05:30:23 PM 43.0603 -105.9394 87° East 486 559 33,000  Level Denver Center
Wed 05:31:25 PM 43.0686 -105.7597 86° East 492 566 33,000  Level Denver Center
Wed 05:32:27 PM 43.0614 -105.5817 93° East 491 565 33,000  Level Denver Center
Wed 05:33:30 PM 43.0647 -105.3719 89° East 492 566 33,000  Level Denver Center
Wed 05:34:32 PM 43.0961 -105.1936 76° East 501 577 33,000  Level Denver Center
Wed 05:35:34 PM 43.1336 -104.9892 76° East 497 572 33,000  Level Denver Center
Wed 05:36:36 PM 43.1644 -104.8136 76° East 495 570 33,000  Level Denver Center
Wed 05:37:38 PM 43.2006 -104.6081 76° East 494 568 33,000  Level Denver Center
Wed 05:38:40 PM 43.2319 -104.4311 76° East 496 571 33,000  Level Denver Center
Wed 05:39:42 PM 43.2636 -104.2550 76° East 496 571 33,000  Level Denver Center
Wed 05:40:44 PM 43.2994 -104.0486 77° East 496 571 33,000  Level Denver Center
Wed 05:41:46 PM 43.3292 -103.8753 77° East 492 566 33,000  Level Denver Center
Wed 05:42:48 PM 43.3650 -103.6711 76° East 491 565 33,000  Level Denver Center
Wed 05:43:50 PM 43.3939 -103.4928 77° East 497 572 33,000  Level Denver Center
Wed 05:44:52 PM 43.4275 -103.2889 77° East 492 566 33,000  Level Denver Center
Wed 05:45:54 PM 43.4553 -103.1125 78° East 493 567 33,000  Level Denver Center
Wed 05:46:56 PM 43.4897 -102.9075 77° East 491 565 33,000  Level Denver Center
Wed 05:47:58 PM 43.5183 -102.7319 77° East 492 566 33,000  Level Denver Center
Wed 05:49:00 PM 43.5506 -102.5261 78° East 493 567 33,000  Level Denver Center
Wed 05:50:02 PM 43.5783 -102.3478 78° East 496 571 33,000  Level Denver Center
Wed 05:51:05 PM 43.6111 -102.1394 78° East 499 574 33,000  Level Denver Center
Wed 05:52:07 PM 43.6361 -101.9722 78° East 498 573 33,000  Level Denver Center
Wed 05:53:09 PM 43.6647 -101.7886 78° East 493 567 33,000  Level Denver Center
Wed 05:54:11 PM 43.6972 -101.5661 79° East 493 567 33,000  Level Denver Center
Wed 05:55:13 PM 43.7247 -101.3833 78° East 489 563 33,000  Level Denver Center
Wed 05:56:28 PM 43.7569 -101.1658 78° East 487 560 33,000  Level Minneapolis Center
Wed 05:57:29 PM 43.7828 -100.9819 79° East 485 558 33,000  Level Denver Center
Wed 05:58:31 PM 43.8092 -100.7992 79° East 486 559 33,000  Level Denver Center
Wed 05:59:35 PM 43.8411 -100.5811 78° East 486 559 33,000  Level Minneapolis Center
Wed 06:00:37 PM 43.8664 -100.3969 79° East 487 560 33,000  Level Minneapolis Center
Wed 06:01:39 PM 43.8903 -100.2131 80° East 488 562 33,000  Level Minneapolis Center
Wed 06:02:41 PM 43.9161 -100.0319 79° East 484 557 33,000  Level Minneapolis Center
Wed 06:03:43 PM 43.9403 -99.8489 80° East 484 557 33,000  Level Minneapolis Center
Wed 06:04:45 PM 43.9642 -99.6672 80° East 483 556 33,000  Level Minneapolis Center
Wed 06:05:47 PM 43.9922 -99.4500 80° East 481 554 33,000  Level Minneapolis Center
Wed 06:06:49 PM 44.0153 -99.2689 80° East 480 552 33,000  Level Minneapolis Center
Wed 06:07:51 PM 44.0394 -99.0864 80° East 481 554 33,000  Level Minneapolis Center
Wed 06:08:53 PM 44.0619 -98.9050 80° East 480 552 33,000  Level Minneapolis Center
Wed 06:09:56 PM 44.0842 -98.7233 80° East 479 551 33,000  Level Minneapolis Center
Wed 06:10:58 PM 44.1078 -98.5356 80° East 478 550 33,000 194 Level Minneapolis Center
Wed 06:12:00 PM 44.1336 -98.3181 81° East 477 549 33,400 774 Climbing Minneapolis Center
Wed 06:13:02 PM 44.1558 -98.1364 80° East 478 550 34,600 1,258 Climbing Minneapolis Center
Wed 06:14:04 PM 44.1764 -97.9600 81° East 466 536 36,000 1,161 Climbing Minneapolis Center
Wed 06:15:06 PM 44.1956 -97.7889 81° East 452 520 37,000 484 Climbing Minneapolis Center
Wed 06:16:08 PM 44.2147 -97.6158 81° East 452 520 37,000  Level Minneapolis Center
Wed 06:17:10 PM 44.2347 -97.4403 81° East 458 527 37,000  Level Minneapolis Center
Wed 06:18:12 PM 44.2581 -97.2281 81° East 461 531 37,000  Level Minneapolis Center
Wed 06:19:14 PM 44.2764 -97.0522 82° East 460 529 37,000  Level Minneapolis Center
Wed 06:20:16 PM 44.2947 -96.8800 81° East 452 520 37,000  Level Minneapolis Center
Wed 06:21:18 PM 44.3133 -96.7089 81° East 446 513 37,000  Level Minneapolis Center
Wed 06:22:21 PM 44.3311 -96.5389 82° East 442 509 37,000  Level Minneapolis Center
Wed 06:23:23 PM 44.3494 -96.3675 81° East 442 509 37,000 -194 Level Minneapolis Center
Wed 06:24:25 PM 44.3667 -96.1950 82° East 441 507 36,600 -629 Descending Minneapolis Center
Wed 06:25:27 PM 44.3847 -96.0225 82° East 442 509 35,700 -1,065 Descending Minneapolis Center
Wed 06:26:29 PM 44.4039 -95.8133 83° East 450 518 34,400 -2,226 Descending Minneapolis Center
Wed 06:27:31 PM 44.4208 -95.6364 82° East 457 526 31,100 -3,000 Descending Minneapolis Center
Wed 06:28:33 PM 44.4378 -95.4578 82° East 463 533 28,200 -1,887 Descending Minneapolis Center
Wed 06:29:35 PM 44.4533 -95.2769 83° East 467 537 27,200 -1,548 Descending Minneapolis Center
Wed 06:30:37 PM 44.4731 -95.0936 81° East 475 547 25,000 -2,419 Descending Minneapolis Center
Wed 06:31:39 PM 44.5164 -94.9183 71° East 476 548 22,200 -2,952 Descending Minneapolis Center
Wed 06:32:41 PM 44.5656 -94.7161 71° East 461 531 18,900 -2,855 Descending Minneapolis Center
Wed 06:33:43 PM 44.6014 -94.5608 72° East 447 514 16,300 -2,448 Descending Minneapolis Center
Wed 06:34:46 PM 44.6372 -94.4050 72° East 422 486 13,800 -2,448 Descending Minneapolis Center
Wed 06:35:48 PM 44.6711 -94.2539 72° East 405 466 11,200 -1,403 Descending Minneapolis Center
Wed 06:36:50 PM 44.6956 -94.0678 79° East 405 466 10,900 -242 Descending Minneapolis Center
Wed 06:37:52 PM 44.7369 -93.9442 65° Northeast 340 391 10,700 -919 Descending Minneapolis Center
Wed 06:38:54 PM 44.7861 -93.8531 53° Northeast 293 337 9,000 -1,200 Descending Minneapolis Center
Wed 06:39:57 PM 44.8486 -93.7967 33° Northeast 265 305 8,200 -864 Descending Minneapolis Center
Wed 06:40:59 PM 44.9081 -93.7422 33° Northeast 255 293 7,200 -823 Descending Minneapolis Center
Wed 06:42:01 PM 44.9439 -93.6561 60° Northeast 257 296 6,500 -968 Descending Minneapolis Center
Wed 06:43:03 PM 44.9653 -93.5447 75° East 245 282 5,200 -1,258 Descending Minneapolis Center

Login

Don't have an account? Register now (free) for customized features, flight alerts, and more!